Terminal Aerodrome Forecast
Issued by NWS Corpus Christi, TX

Home | Current Version | Previous Version | Text Only | Print | Product List | Glossary On
Versions: 1 2 3 4 5 6 7 8 9 10 11 12 13 14 15 16 17 18 19 20 21
000
FTUS44 KCRP 020532
TAFCRP
TAF
KCRP 020532Z 0206/0306 13005KT P6SM VCSH FEW015 SCT025
      TEMPO 0206/0210 -SHRA
     FM021000 VRB03KT P6SM VCSH SCT020
      TEMPO 0210/0213 5SM -SHRA BR BKN020
     FM021300 13004KT P6SM VCSH BKN025
     FM021500 14012KT P6SM VCTS SCT030CB
     FM022100 15015KT P6SM FEW035=

USA.gov is the U.S. government's official web portal to all federal, state and local government web resources and services.